createdAt,value
2022-09-12T00:01:41.127Z,14.90
2022-09-12T00:04:11.836Z,14.90
2022-09-12T00:06:42.191Z,14.70
2022-09-12T00:09:15.466Z,14.60
2022-09-12T00:11:47.144Z,14.50
2022-09-12T00:14:19.100Z,14.40
2022-09-12T00:16:48.748Z,14.40
2022-09-12T00:19:18.868Z,14.30
2022-09-12T00:21:48.122Z,14.20
2022-09-12T00:24:17.610Z,14.10
2022-09-12T00:26:47.605Z,14.00
2022-09-12T00:29:21.418Z,14.10
2022-09-12T00:31:50.816Z,14.10
2022-09-12T00:34:20.067Z,14.00
2022-09-12T00:36:49.454Z,14.00
2022-09-12T00:39:19.291Z,14.00
2022-09-12T00:41:48.676Z,14.10
2022-09-12T00:44:23.783Z,14.10
2022-09-12T00:47:29.791Z,14.30
2022-09-12T00:50:09.851Z,14.40
2022-09-12T00:52:53.741Z,14.50
2022-09-12T00:55:41.221Z,14.50
2022-09-12T00:58:29.827Z,14.50
2022-09-12T01:00:59.413Z,14.60
2022-09-12T01:03:29.042Z,14.70
2022-09-12T01:06:11.974Z,14.70
2022-09-12T01:08:43.842Z,14.80
2022-09-12T01:11:16.043Z,14.90
2022-09-12T01:13:46.435Z,15.00
2022-09-12T01:16:16.232Z,15.00
2022-09-12T01:19:09.876Z,15.10
2022-09-12T01:22:00.188Z,15.10
2022-09-12T01:25:14.786Z,15.20
2022-09-12T01:28:07.070Z,15.20
2022-09-12T01:31:01.001Z,15.10
2022-09-12T01:33:39.438Z,15.20
2022-09-12T01:36:45.977Z,15.20
2022-09-12T01:39:27.829Z,15.20
2022-09-12T01:42:02.595Z,15.10
2022-09-12T01:44:43.423Z,15.20
2022-09-12T01:47:24.053Z,15.20
2022-09-12T01:50:13.060Z,15.20
2022-09-12T01:53:09.735Z,15.20
2022-09-12T01:55:49.905Z,15.10
2022-09-12T01:58:43.676Z,15.20
2022-09-12T02:01:20.141Z,15.20
2022-09-12T02:03:57.477Z,15.10
2022-09-12T02:06:58.016Z,15.00
2022-09-12T02:09:37.849Z,14.90
2022-09-12T02:12:14.951Z,14.70
2022-09-12T02:14:53.953Z,14.60
2022-09-12T02:17:26.989Z,14.50
2022-09-12T02:20:06.978Z,14.40
2022-09-12T02:22:39.779Z,14.30
2022-09-12T02:25:14.536Z,14.20
2022-09-12T02:27:55.167Z,14.20
2022-09-12T02:30:24.982Z,14.10
2022-09-12T02:33:26.790Z,14.10
2022-09-12T02:36:34.528Z,14.00
2022-09-12T02:39:04.373Z,14.00
2022-09-12T02:41:33.881Z,13.90
2022-09-12T02:44:04.376Z,13.90
2022-09-12T02:46:46.633Z,13.90
2022-09-12T02:49:17.626Z,13.80
2022-09-12T02:51:48.794Z,13.90
2022-09-12T02:54:21.068Z,13.80
2022-09-12T02:56:50.273Z,13.80
2022-09-12T02:59:23.069Z,13.70
2022-09-12T03:02:19.930Z,13.80
2022-09-12T03:05:18.871Z,13.80
2022-09-12T03:08:25.045Z,13.90
2022-09-12T03:11:06.341Z,14.10
2022-09-12T03:14:01.895Z,14.20
2022-09-12T03:17:21.597Z,14.20
2022-09-12T03:20:13.468Z,14.20
2022-09-12T03:23:04.391Z,14.00
2022-09-12T03:25:42.485Z,14.00
2022-09-12T03:28:21.437Z,13.90
2022-09-12T03:30:53.511Z,13.80
2022-09-12T03:33:25.493Z,13.80
2022-09-12T03:35:56.119Z,13.80
2022-09-12T03:38:25.474Z,13.80
2022-09-12T03:40:55.071Z,13.70
2022-09-12T03:43:24.506Z,13.70
2022-09-12T03:45:53.807Z,13.80
2022-09-12T03:48:23.108Z,13.70
2022-09-12T03:50:52.323Z,13.70
2022-09-12T03:53:21.504Z,13.70
2022-09-12T03:55:51.016Z,13.70
2022-09-12T03:58:20.224Z,13.60
2022-09-12T04:00:49.766Z,13.60
2022-09-12T04:03:19.426Z,13.70
2022-09-12T04:05:48.637Z,13.70
2022-09-12T04:08:17.876Z,13.60
2022-09-12T04:10:47.071Z,13.60
2022-09-12T04:13:16.344Z,13.60
2022-09-12T04:15:57.761Z,13.50
2022-09-12T04:18:28.258Z,13.50
2022-09-12T04:20:57.823Z,13.50
2022-09-12T04:23:27.000Z,13.50
2022-09-12T04:25:58.724Z,13.50
2022-09-12T04:28:32.591Z,13.60
2022-09-12T04:31:05.044Z,13.60
2022-09-12T04:33:36.368Z,13.70
2022-09-12T04:36:17.784Z,13.70
2022-09-12T04:38:48.317Z,13.80
2022-09-12T04:41:39.069Z,13.80
2022-09-12T04:44:13.241Z,13.80
2022-09-12T04:46:46.027Z,13.80
2022-09-12T04:49:19.534Z,13.80
2022-09-12T04:51:49.013Z,13.80
2022-09-12T04:54:19.996Z,13.90
2022-09-12T04:56:52.188Z,14.10
2022-09-12T04:59:22.915Z,14.20
2022-09-12T05:01:52.342Z,14.30
2022-09-12T05:04:21.715Z,14.30
2022-09-12T05:06:50.973Z,14.30
2022-09-12T05:09:20.708Z,14.40
2022-09-12T05:12:05.862Z,14.50
2022-09-12T05:14:35.716Z,14.50
2022-09-12T05:17:06.148Z,14.60
2022-09-12T05:19:35.619Z,14.70
2022-09-12T05:22:06.674Z,14.70
2022-09-12T05:24:37.922Z,14.80
2022-09-12T05:27:07.525Z,14.90
2022-09-12T05:29:36.762Z,15.00
2022-09-12T05:32:06.522Z,15.10
2022-09-12T05:34:35.741Z,15.20
2022-09-12T05:37:05.486Z,15.30
2022-09-12T05:39:34.895Z,15.40
2022-09-12T05:42:04.560Z,15.50
2022-09-12T05:44:33.861Z,15.70
2022-09-12T05:47:03.148Z,15.80
2022-09-12T05:49:32.389Z,15.90
2022-09-12T05:52:01.925Z,16.10
2022-09-12T05:54:31.793Z,16.30
2022-09-12T05:57:01.133Z,16.60
2022-09-12T05:59:30.316Z,16.80
2022-09-12T06:02:00.447Z,17.10
2022-09-12T06:04:29.731Z,17.60
2022-09-12T06:06:59.213Z,18.20
2022-09-12T06:09:28.444Z,18.50
2022-09-12T06:11:57.650Z,18.80
2022-09-12T06:14:27.067Z,19.00
2022-09-12T06:16:56.447Z,19.30
2022-09-12T06:19:27.786Z,19.60
2022-09-12T06:21:57.120Z,19.70
2022-09-12T06:24:26.383Z,20.00
2022-09-12T06:26:55.677Z,20.30
2022-09-12T06:29:24.980Z,20.20
2022-09-12T06:31:54.249Z,20.10
2022-09-12T06:34:23.485Z,19.90
2022-09-12T06:36:52.765Z,20.00
2022-09-12T06:39:23.387Z,20.00
2022-09-12T06:41:53.050Z,19.80
2022-09-12T06:44:35.406Z,19.60
2022-09-12T06:47:04.867Z,19.80
2022-09-12T06:49:34.092Z,19.90
2022-09-12T06:52:03.326Z,20.00
2022-09-12T06:54:32.587Z,20.10
2022-09-12T06:57:02.483Z,19.80
2022-09-12T06:59:31.705Z,19.40
2022-09-12T07:02:01.673Z,19.40
2022-09-12T07:04:33.662Z,19.70
2022-09-12T07:07:02.932Z,20.00
2022-09-12T07:09:32.227Z,20.30
2022-09-12T07:12:04.406Z,20.50
2022-09-12T07:14:33.816Z,20.80
2022-09-12T07:17:03.136Z,21.30
2022-09-12T07:19:33.143Z,21.80
2022-09-12T07:22:02.502Z,22.50
2022-09-12T07:24:31.695Z,22.70
2022-09-12T07:27:00.883Z,22.90
2022-09-12T07:29:37.020Z,22.90
2022-09-12T07:32:07.229Z,22.90
2022-09-12T07:34:37.331Z,22.80
2022-09-12T07:37:06.597Z,22.30
2022-09-12T07:39:35.773Z,21.80
2022-09-12T07:42:05.434Z,21.50
2022-09-12T07:44:34.707Z,21.20
2022-09-12T07:47:04.763Z,21.30
2022-09-12T07:49:34.146Z,21.40
2022-09-12T07:52:03.449Z,21.40
2022-09-12T07:54:33.359Z,21.30
2022-09-12T07:57:02.744Z,21.20
2022-09-12T07:59:51.318Z,21.40
2022-09-12T08:02:21.357Z,21.50
2022-09-12T08:04:51.473Z,21.30
2022-09-12T08:07:20.831Z,21.60
2022-09-12T08:09:50.052Z,21.80
2022-09-12T08:12:20.401Z,21.80
2022-09-12T08:14:49.585Z,22.10
2022-09-12T08:17:18.992Z,22.30
2022-09-12T08:19:48.398Z,22.60
2022-09-12T08:22:21.832Z,22.40
2022-09-12T08:24:51.161Z,22.30
2022-09-12T08:27:20.365Z,22.20
2022-09-12T08:29:49.677Z,22.10
2022-09-12T08:32:18.913Z,22.10
2022-09-12T08:34:48.167Z,22.30
2022-09-12T08:37:17.862Z,22.30
2022-09-12T08:39:47.230Z,22.10
2022-09-12T08:42:41.880Z,21.90
2022-09-12T08:45:41.223Z,21.80
2022-09-12T08:48:13.372Z,21.70
2022-09-12T08:50:49.255Z,21.50
2022-09-12T08:53:27.219Z,21.20
2022-09-12T08:56:00.471Z,21.10
2022-09-12T08:58:37.169Z,21.00
2022-09-12T09:01:26.323Z,21.00
2022-09-12T09:04:32.557Z,21.00
2022-09-12T09:07:42.398Z,21.00
2022-09-12T09:10:29.950Z,21.30
2022-09-12T09:14:08.135Z,21.50
2022-09-12T09:16:45.034Z,21.80
2022-09-12T09:19:37.633Z,21.70
2022-09-12T09:23:03.161Z,21.60
2022-09-12T09:25:51.411Z,21.50
2022-09-12T09:28:45.075Z,21.30
2022-09-12T09:31:23.363Z,21.00
2022-09-12T09:33:55.753Z,21.00
2022-09-12T09:37:13.000Z,20.70
2022-09-12T09:40:00.380Z,20.40
2022-09-12T09:43:03.548Z,20.60
2022-09-12T09:45:32.913Z,21.00
2022-09-12T09:48:46.931Z,21.20
2022-09-12T09:51:27.059Z,21.20
2022-09-12T09:54:10.358Z,21.00
2022-09-12T09:56:44.691Z,20.80
2022-09-12T09:59:34.181Z,20.70
2022-09-12T10:02:13.231Z,20.60
2022-09-12T10:04:55.596Z,20.60
2022-09-12T10:07:27.179Z,20.70
2022-09-12T10:10:19.056Z,20.80
2022-09-12T10:12:48.770Z,20.80
2022-09-12T10:15:27.677Z,20.80
2022-09-12T10:17:57.104Z,20.70
2022-09-12T10:20:46.553Z,20.70
2022-09-12T10:23:35.274Z,20.70
2022-09-12T10:26:12.785Z,20.60
2022-09-12T10:28:52.164Z,20.60
2022-09-12T10:31:36.215Z,20.50
2022-09-12T10:34:05.790Z,20.50
2022-09-12T10:36:40.520Z,20.50
2022-09-12T10:39:19.655Z,20.60
2022-09-12T10:41:49.008Z,20.70
2022-09-12T10:44:26.543Z,20.80
2022-09-12T10:46:56.156Z,20.90
2022-09-12T10:49:31.405Z,21.00
2022-09-12T10:52:26.070Z,21.00
2022-09-12T10:54:55.585Z,21.20
2022-09-12T10:57:40.009Z,21.40
2022-09-12T11:00:27.583Z,21.40
2022-09-12T11:04:04.678Z,21.20
2022-09-12T11:07:14.869Z,21.50
2022-09-12T11:10:00.551Z,21.30
2022-09-12T11:12:54.452Z,20.90
2022-09-12T11:15:26.743Z,20.90
2022-09-12T11:18:20.607Z,20.90
2022-09-12T11:20:57.792Z,20.90
2022-09-12T11:23:56.988Z,20.80
2022-09-12T11:26:58.040Z,20.70
2022-09-12T11:29:50.589Z,20.50
2022-09-12T11:32:56.569Z,20.50
2022-09-12T11:35:30.469Z,20.50
2022-09-12T11:38:50.712Z,20.60
2022-09-12T11:41:36.831Z,20.40
2022-09-12T11:44:17.738Z,20.00
2022-09-12T11:46:51.535Z,20.00
2022-09-12T11:49:51.529Z,20.20
2022-09-12T11:52:24.525Z,20.40
2022-09-12T11:54:59.626Z,20.50
2022-09-12T11:57:43.988Z,20.50
2022-09-12T12:00:34.196Z,20.60
2022-09-12T12:03:40.974Z,20.70
2022-09-12T12:06:26.716Z,21.00
2022-09-12T12:08:57.113Z,21.00
2022-09-12T12:11:44.009Z,20.80
2022-09-12T12:14:45.472Z,20.90
2022-09-12T12:17:26.422Z,20.80
2022-09-12T12:20:07.455Z,20.60
2022-09-12T12:22:37.976Z,20.50
2022-09-12T12:25:23.602Z,20.60
2022-09-12T12:28:01.503Z,20.50
2022-09-12T12:30:30.687Z,20.50
2022-09-12T12:33:20.100Z,20.40
2022-09-12T12:36:00.957Z,20.40
2022-09-12T12:38:38.584Z,20.20
2022-09-12T12:41:16.973Z,20.20
2022-09-12T12:43:54.636Z,20.10
2022-09-12T12:46:27.822Z,20.20
2022-09-12T12:49:11.158Z,20.20
2022-09-12T12:52:01.913Z,20.10
2022-09-12T12:54:40.129Z,20.10
2022-09-12T12:57:20.023Z,20.10
2022-09-12T12:59:54.554Z,20.10
2022-09-12T13:02:48.982Z,20.20
2022-09-12T13:05:24.647Z,20.20
2022-09-12T13:08:19.244Z,20.40
2022-09-12T13:11:03.077Z,21.40
2022-09-12T13:14:07.618Z,26.00
2022-09-12T13:16:53.211Z,30.40
2022-09-12T13:19:32.518Z,34.00
2022-09-12T13:22:05.025Z,37.30
2022-09-12T13:24:44.582Z,39.70
2022-09-12T13:27:25.695Z,40.90
2022-09-12T13:30:14.574Z,42.40
2022-09-12T13:32:44.694Z,43.30
2022-09-12T13:35:47.035Z,43.50
2022-09-12T13:38:45.743Z,44.50
2022-09-12T13:41:51.099Z,45.10
2022-09-12T13:44:23.919Z,45.10
2022-09-12T13:46:55.587Z,45.20
2022-09-12T13:49:38.231Z,45.60
2022-09-12T13:52:21.451Z,45.20
2022-09-12T13:54:55.649Z,42.80
2022-09-12T13:57:33.879Z,37.40
2022-09-12T14:00:12.459Z,32.50
2022-09-12T14:02:42.097Z,29.40
2022-09-12T14:05:22.909Z,27.40
2022-09-12T14:07:58.475Z,26.00
2022-09-12T14:10:33.738Z,24.90
2022-09-12T14:13:12.993Z,24.10
2022-09-12T14:15:52.586Z,23.60
2022-09-12T14:18:36.607Z,23.10
2022-09-12T14:21:17.692Z,22.70
2022-09-12T14:23:49.311Z,22.30
2022-09-12T14:26:19.180Z,22.00
2022-09-12T14:28:49.141Z,21.70
2022-09-12T14:31:31.873Z,21.50
2022-09-12T14:34:16.885Z,21.40
2022-09-12T14:36:56.360Z,21.20
2022-09-12T14:39:43.501Z,21.10
2022-09-12T14:42:27.527Z,20.90
2022-09-12T14:45:17.123Z,20.80
2022-09-12T14:47:51.434Z,20.70
2022-09-12T14:50:26.779Z,20.60
2022-09-12T14:53:17.109Z,20.60
2022-09-12T14:55:56.039Z,20.50
2022-09-12T14:58:28.408Z,20.50
2022-09-12T15:01:06.355Z,20.40
2022-09-12T15:03:43.947Z,20.40
2022-09-12T15:06:31.461Z,20.30
2022-09-12T15:09:14.512Z,20.30
2022-09-12T15:11:43.724Z,20.30
2022-09-12T15:14:15.095Z,20.20
2022-09-12T15:16:44.316Z,20.20
2022-09-12T15:19:14.213Z,20.20
2022-09-12T15:21:43.433Z,20.10
2022-09-12T15:24:12.633Z,20.10
2022-09-12T15:26:41.808Z,20.00
2022-09-12T15:29:10.980Z,20.00
2022-09-12T15:31:40.663Z,19.90
2022-09-12T15:34:10.057Z,19.90
2022-09-12T15:36:39.332Z,19.80
2022-09-12T15:39:10.668Z,19.80
2022-09-12T15:41:39.973Z,19.70
2022-09-12T15:44:14.077Z,19.60
2022-09-12T15:46:43.401Z,19.60
2022-09-12T15:49:12.752Z,19.50
2022-09-12T15:51:41.997Z,19.40
2022-09-12T15:54:15.256Z,19.40
2022-09-12T15:56:44.894Z,19.40
2022-09-12T15:59:14.086Z,19.30
2022-09-12T16:01:43.403Z,19.30
2022-09-12T16:04:28.484Z,19.20
2022-09-12T16:06:58.130Z,19.10
2022-09-12T16:09:27.383Z,19.00
2022-09-12T16:11:56.562Z,19.00
2022-09-12T16:14:25.902Z,18.90
2022-09-12T16:16:57.719Z,18.80
2022-09-12T16:19:26.884Z,18.80
2022-09-12T16:21:56.102Z,18.70
2022-09-12T16:24:25.313Z,18.60
2022-09-12T16:26:56.863Z,18.50
2022-09-12T16:29:30.341Z,18.40
2022-09-12T16:31:59.601Z,18.30
2022-09-12T16:34:28.844Z,18.20
2022-09-12T16:36:58.062Z,18.10
2022-09-12T16:39:27.314Z,18.00
2022-09-12T16:41:56.557Z,17.80
2022-09-12T16:44:25.782Z,17.80
2022-09-12T16:46:55.508Z,17.70
2022-09-12T16:49:24.718Z,17.60
2022-09-12T16:51:53.858Z,17.50
2022-09-12T16:54:23.833Z,17.30
2022-09-12T16:56:53.110Z,17.20
2022-09-12T16:59:22.456Z,17.10
2022-09-12T17:01:52.309Z,16.90
2022-09-12T17:04:23.700Z,16.70
2022-09-12T17:06:53.095Z,16.50
2022-09-12T17:09:22.429Z,16.50
2022-09-12T17:11:53.251Z,16.40
2022-09-12T17:14:22.961Z,16.30
2022-09-12T17:16:52.613Z,16.20
2022-09-12T17:19:29.667Z,16.00
2022-09-12T17:21:59.107Z,16.00
2022-09-12T17:24:28.462Z,15.90
2022-09-12T17:26:57.670Z,16.00
2022-09-12T17:29:27.464Z,15.90
2022-09-12T17:31:57.209Z,15.90
2022-09-12T17:34:26.427Z,15.80
2022-09-12T17:36:55.584Z,15.70
2022-09-12T17:39:24.886Z,15.60
2022-09-12T17:41:57.808Z,15.40
2022-09-12T17:44:29.817Z,15.30
2022-09-12T17:46:59.057Z,15.10
2022-09-12T17:49:28.469Z,14.90
2022-09-12T17:51:57.922Z,14.80
2022-09-12T17:54:27.716Z,14.70
2022-09-12T17:56:56.999Z,14.60
2022-09-12T17:59:29.198Z,14.50
2022-09-12T18:02:13.571Z,14.30
2022-09-12T18:04:48.748Z,14.30
2022-09-12T18:07:19.711Z,14.20
2022-09-12T18:09:50.623Z,14.20
2022-09-12T18:12:20.117Z,14.20
2022-09-12T18:14:49.331Z,14.20
2022-09-12T18:17:18.720Z,14.10
2022-09-12T18:19:53.367Z,14.10
2022-09-12T18:22:22.914Z,14.00
2022-09-12T18:24:52.121Z,13.80
2022-09-12T18:27:21.394Z,13.80
2022-09-12T18:30:10.285Z,13.70
2022-09-12T18:32:40.234Z,13.60
2022-09-12T18:35:09.754Z,13.50
2022-09-12T18:37:41.494Z,13.40
2022-09-12T18:40:11.358Z,13.30
2022-09-12T18:42:40.632Z,13.20
2022-09-12T18:45:10.252Z,13.20
2022-09-12T18:47:39.461Z,13.20
2022-09-12T18:50:09.651Z,13.20
2022-09-12T18:52:38.816Z,13.10
2022-09-12T18:55:08.609Z,13.20
2022-09-12T18:57:38.305Z,13.10
2022-09-12T19:00:12.367Z,13.00
2022-09-12T19:02:41.808Z,13.00
2022-09-12T19:05:12.826Z,12.90
2022-09-12T19:07:42.122Z,12.80
2022-09-12T19:10:12.043Z,12.80
2022-09-12T19:12:41.342Z,12.80
2022-09-12T19:15:10.980Z,12.70
2022-09-12T19:17:40.181Z,12.80
2022-09-12T19:20:09.684Z,12.70
2022-09-12T19:22:38.951Z,12.60
2022-09-12T19:25:08.801Z,12.60
2022-09-12T19:27:38.119Z,12.50
2022-09-12T19:30:08.097Z,12.40
2022-09-12T19:32:37.300Z,12.30
2022-09-12T19:35:06.872Z,12.20
2022-09-12T19:37:36.075Z,12.20
2022-09-12T19:40:07.243Z,12.20
2022-09-12T19:42:36.515Z,12.10
2022-09-12T19:45:06.559Z,12.10
2022-09-12T19:47:35.790Z,12.10
2022-09-12T19:50:05.877Z,12.10
2022-09-12T19:52:35.202Z,12.00
2022-09-12T19:55:04.815Z,12.00
2022-09-12T19:57:34.191Z,12.00
2022-09-12T20:00:06.775Z,12.00
2022-09-12T20:02:36.085Z,11.90
2022-09-12T20:05:05.964Z,11.80
2022-09-12T20:07:35.188Z,11.70
2022-09-12T20:10:05.096Z,11.60
2022-09-12T20:12:34.321Z,11.60
2022-09-12T20:15:05.065Z,11.50
2022-09-12T20:17:35.661Z,11.50
2022-09-12T20:20:07.796Z,11.50
2022-09-12T20:22:40.164Z,11.50
2022-09-12T20:25:09.794Z,11.40
2022-09-12T20:27:39.862Z,11.40
2022-09-12T20:30:10.290Z,11.30
2022-09-12T20:32:39.545Z,11.40
2022-09-12T20:35:09.815Z,11.30
2022-09-12T20:37:40.776Z,11.20
2022-09-12T20:40:11.453Z,11.20
2022-09-12T20:42:41.211Z,11.00
2022-09-12T20:45:10.792Z,10.90
2022-09-12T20:47:39.989Z,10.90
2022-09-12T20:50:09.677Z,10.90
2022-09-12T20:52:38.989Z,10.90
2022-09-12T20:55:09.109Z,10.80
2022-09-12T20:57:39.014Z,10.80
2022-09-12T21:00:11.413Z,10.80
2022-09-12T21:02:40.848Z,10.80
2022-09-12T21:05:10.203Z,10.80
2022-09-12T21:07:39.407Z,10.80
2022-09-12T21:10:09.200Z,10.80
2022-09-12T21:12:39.585Z,10.70
2022-09-12T21:15:09.561Z,10.70
2022-09-12T21:17:38.888Z,10.70
2022-09-12T21:20:11.383Z,10.70
2022-09-12T21:22:40.876Z,10.70
2022-09-12T21:25:10.890Z,10.60
2022-09-12T21:27:40.120Z,10.60
2022-09-12T21:30:10.082Z,10.50
2022-09-12T21:32:39.380Z,10.40
2022-09-12T21:35:09.240Z,10.40
2022-09-12T21:37:38.481Z,10.40
2022-09-12T21:40:08.093Z,10.40
2022-09-12T21:42:37.424Z,10.40
2022-09-12T21:45:07.366Z,10.30
2022-09-12T21:47:39.126Z,10.30
2022-09-12T21:50:09.674Z,10.30
2022-09-12T21:52:39.647Z,10.20
2022-09-12T21:55:09.947Z,10.30
2022-09-12T21:57:40.047Z,10.20
2022-09-12T22:00:15.768Z,10.20
2022-09-12T22:02:46.511Z,10.10
2022-09-12T22:05:16.798Z,10.10
2022-09-12T22:07:45.982Z,10.10
2022-09-12T22:10:15.325Z,10.10
2022-09-12T22:12:46.509Z,10.00
2022-09-12T22:15:39.491Z,10.10
2022-09-12T22:18:07.377Z,10.00
2022-09-12T22:20:36.594Z,10.00
2022-09-12T22:23:25.150Z,9.90
2022-09-12T22:25:56.474Z,9.80
2022-09-12T22:28:25.730Z,9.80
2022-09-12T22:30:55.134Z,9.70
2022-09-12T22:33:24.355Z,9.70
2022-09-12T22:35:53.832Z,9.70
2022-09-12T22:38:23.052Z,9.70
2022-09-12T22:40:52.352Z,9.70
2022-09-12T22:43:21.574Z,9.60
2022-09-12T22:45:50.916Z,9.60
2022-09-12T22:48:20.472Z,9.60
2022-09-12T22:50:49.870Z,9.50
2022-09-12T22:53:19.494Z,9.50
2022-09-12T22:55:48.766Z,9.50
2022-09-12T22:58:18.326Z,9.50
2022-09-12T23:00:51.714Z,9.40
2022-09-12T23:03:21.756Z,9.40
2022-09-12T23:05:51.095Z,9.30
2022-09-12T23:08:20.515Z,9.30
2022-09-12T23:10:49.695Z,9.30
2022-09-12T23:13:18.899Z,9.30
2022-09-12T23:15:48.309Z,9.20
2022-09-12T23:18:17.608Z,9.20
2022-09-12T23:21:01.232Z,9.20
2022-09-12T23:23:30.900Z,9.20
2022-09-12T23:26:22.373Z,9.20
2022-09-12T23:28:54.814Z,9.20
2022-09-12T23:31:29.856Z,9.20
2022-09-12T23:34:02.909Z,9.10
2022-09-12T23:36:33.002Z,9.10
2022-09-12T23:39:02.889Z,9.10
2022-09-12T23:41:32.316Z,9.10
2022-09-12T23:44:02.014Z,9.10
2022-09-12T23:46:31.231Z,9.00
2022-09-12T23:49:00.391Z,9.00
2022-09-12T23:51:29.694Z,9.00
2022-09-12T23:53:59.020Z,8.90
2022-09-12T23:56:28.360Z,8.90
2022-09-12T23:58:57.580Z,8.80
